sensor_id;sensor_type;location;lat;lon;timestamp;P1;durP1;ratioP1;P2;durP2;ratioP2
56171;SDS011;42052;41.634;-0.946;2024-03-29T00:01:24;0.30;;;0.30;;
56171;SDS011;42052;41.634;-0.946;2024-03-29T00:03:50;0.20;;;0.20;;
56171;SDS011;42052;41.634;-0.946;2024-03-29T00:06:18;0.28;;;0.20;;
56171;SDS011;42052;41.634;-0.946;2024-03-29T00:08:44;0.40;;;0.30;;
56171;SDS011;42052;41.634;-0.946;2024-03-29T00:11:09;0.30;;;0.30;;
56171;SDS011;42052;41.634;-0.946;2024-03-29T00:13:35;0.22;;;0.20;;
56171;SDS011;42052;41.634;-0.946;2024-03-29T00:16:02;0.20;;;0.20;;
56171;SDS011;42052;41.634;-0.946;2024-03-29T00:18:28;0.65;;;0.20;;
56171;SDS011;42052;41.634;-0.946;2024-03-29T00:20:53;0.30;;;0.30;;
56171;SDS011;42052;41.634;-0.946;2024-03-29T00:23:19;0.45;;;0.35;;
56171;SDS011;42052;41.634;-0.946;2024-03-29T00:25:45;0.90;;;0.30;;
56171;SDS011;42052;41.634;-0.946;2024-03-29T00:28:13;0.95;;;0.25;;
56171;SDS011;42052;41.634;-0.946;2024-03-29T00:30:39;0.20;;;0.20;;
56171;SDS011;42052;41.634;-0.946;2024-03-29T00:33:04;0.35;;;0.25;;
56171;SDS011;42052;41.634;-0.946;2024-03-29T00:35:30;0.40;;;0.28;;
56171;SDS011;42052;41.634;-0.946;2024-03-29T00:37:56;0.22;;;0.20;;
56171;SDS011;42052;41.634;-0.946;2024-03-29T00:40:23;0.30;;;0.30;;
56171;SDS011;42052;41.634;-0.946;2024-03-29T00:42:49;0.20;;;0.20;;
56171;SDS011;42052;41.634;-0.946;2024-03-29T00:45:14;0.20;;;0.20;;
56171;SDS011;42052;41.634;-0.946;2024-03-29T00:47:40;0.30;;;0.30;;
56171;SDS011;42052;41.634;-0.946;2024-03-29T00:50:07;0.50;;;0.30;;
56171;SDS011;42052;41.634;-0.946;2024-03-29T00:52:34;0.20;;;0.20;;
56171;SDS011;42052;41.634;-0.946;2024-03-29T00:55:00;0.57;;;0.20;;
56171;SDS011;42052;41.634;-0.946;2024-03-29T00:57:27;0.20;;;0.20;;
56171;SDS011;42052;41.634;-0.946;2024-03-29T00:59:55;0.28;;;0.20;;
56171;SDS011;42052;41.634;-0.946;2024-03-29T01:02:24;0.50;;;0.25;;
56171;SDS011;42052;41.634;-0.946;2024-03-29T01:04:50;0.30;;;0.20;;
56171;SDS011;42052;41.634;-0.946;2024-03-29T01:07:16;0.20;;;0.20;;
56171;SDS011;42052;41.634;-0.946;2024-03-29T01:09:42;0.85;;;0.30;;
56171;SDS011;42052;41.634;-0.946;2024-03-29T01:12:09;0.45;;;0.30;;
56171;SDS011;42052;41.634;-0.946;2024-03-29T01:14:35;0.70;;;0.30;;
56171;SDS011;42052;41.634;-0.946;2024-03-29T01:17:01;0.47;;;0.30;;
56171;SDS011;42052;41.634;-0.946;2024-03-29T01:19:28;0.30;;;0.20;;
56171;SDS011;42052;41.634;-0.946;2024-03-29T01:21:54;0.43;;;0.30;;
56171;SDS011;42052;41.634;-0.946;2024-03-29T01:24:20;0.35;;;0.25;;
56171;SDS011;42052;41.634;-0.946;2024-03-29T01:26:46;0.50;;;0.22;;
56171;SDS011;42052;41.634;-0.946;2024-03-29T01:29:12;0.35;;;0.30;;
56171;SDS011;42052;41.634;-0.946;2024-03-29T01:31:38;0.20;;;0.20;;
56171;SDS011;42052;41.634;-0.946;2024-03-29T01:34:04;0.30;;;0.20;;
56171;SDS011;42052;41.634;-0.946;2024-03-29T01:36:29;0.38;;;0.30;;
56171;SDS011;42052;41.634;-0.946;2024-03-29T01:38:55;0.30;;;0.30;;
56171;SDS011;42052;41.634;-0.946;2024-03-29T01:41:22;0.30;;;0.30;;
56171;SDS011;42052;41.634;-0.946;2024-03-29T01:43:49;0.77;;;0.30;;
56171;SDS011;42052;41.634;-0.946;2024-03-29T01:46:15;1.27;;;0.28;;
56171;SDS011;42052;41.634;-0.946;2024-03-29T01:48:44;0.30;;;0.30;;
56171;SDS011;42052;41.634;-0.946;2024-03-29T01:51:10;0.30;;;0.20;;
56171;SDS011;42052;41.634;-0.946;2024-03-29T01:53:39;0.40;;;0.30;;
56171;SDS011;42052;41.634;-0.946;2024-03-29T01:56:06;0.65;;;0.20;;
56171;SDS011;42052;41.634;-0.946;2024-03-29T01:58:33;0.32;;;0.30;;
56171;SDS011;42052;41.634;-0.946;2024-03-29T02:01:00;0.20;;;0.20;;
56171;SDS011;42052;41.634;-0.946;2024-03-29T02:03:26;0.50;;;0.30;;
56171;SDS011;42052;41.634;-0.946;2024-03-29T02:05:53;0.47;;;0.30;;
56171;SDS011;42052;41.634;-0.946;2024-03-29T02:08:20;0.68;;;0.30;;
56171;SDS011;42052;41.634;-0.946;2024-03-29T02:10:47;0.20;;;0.20;;
56171;SDS011;42052;41.634;-0.946;2024-03-29T02:13:13;0.30;;;0.20;;
56171;SDS011;42052;41.634;-0.946;2024-03-29T02:15:39;0.25;;;0.25;;
56171;SDS011;42052;41.634;-0.946;2024-03-29T02:18:08;0.35;;;0.20;;
56171;SDS011;42052;41.634;-0.946;2024-03-29T02:20:34;0.40;;;0.30;;
56171;SDS011;42052;41.634;-0.946;2024-03-29T02:23:11;0.70;;;0.40;;
56171;SDS011;42052;41.634;-0.946;2024-03-29T02:25:57;0.52;;;0.30;;
56171;SDS011;42052;41.634;-0.946;2024-03-29T02:28:23;0.25;;;0.25;;
56171;SDS011;42052;41.634;-0.946;2024-03-29T02:30:50;0.20;;;0.20;;
56171;SDS011;42052;41.634;-0.946;2024-03-29T02:33:16;0.20;;;0.20;;
56171;SDS011;42052;41.634;-0.946;2024-03-29T02:35:42;0.45;;;0.20;;
56171;SDS011;42052;41.634;-0.946;2024-03-29T02:38:11;0.38;;;0.28;;
56171;SDS011;42052;41.634;-0.946;2024-03-29T02:40:36;0.45;;;0.25;;
56171;SDS011;42052;41.634;-0.946;2024-03-29T02:43:02;0.30;;;0.20;;
56171;SDS011;42052;41.634;-0.946;2024-03-29T02:45:29;0.25;;;0.20;;
56171;SDS011;42052;41.634;-0.946;2024-03-29T02:47:55;0.30;;;0.30;;
56171;SDS011;42052;41.634;-0.946;2024-03-29T02:50:21;0.22;;;0.20;;
56171;SDS011;42052;41.634;-0.946;2024-03-29T02:52:47;0.20;;;0.20;;
56171;SDS011;42052;41.634;-0.946;2024-03-29T02:55:13;0.20;;;0.20;;
56171;SDS011;42052;41.634;-0.946;2024-03-29T02:57:39;0.20;;;0.20;;
56171;SDS011;42052;41.634;-0.946;2024-03-29T03:00:05;0.60;;;0.30;;
56171;SDS011;42052;41.634;-0.946;2024-03-29T03:02:32;0.57;;;0.20;;
56171;SDS011;42052;41.634;-0.946;2024-03-29T03:04:58;0.20;;;0.20;;
56171;SDS011;42052;41.634;-0.946;2024-03-29T03:07:25;0.20;;;0.20;;
56171;SDS011;42052;41.634;-0.946;2024-03-29T03:10:10;0.30;;;0.30;;
56171;SDS011;42052;41.634;-0.946;2024-03-29T03:12:54;0.38;;;0.25;;
56171;SDS011;42052;41.634;-0.946;2024-03-29T03:15:20;0.20;;;0.20;;
56171;SDS011;42052;41.634;-0.946;2024-03-29T03:17:46;0.30;;;0.30;;
56171;SDS011;42052;41.634;-0.946;2024-03-29T03:20:12;0.40;;;0.25;;
56171;SDS011;42052;41.634;-0.946;2024-03-29T03:22:39;0.30;;;0.30;;
56171;SDS011;42052;41.634;-0.946;2024-03-29T03:25:05;0.68;;;0.35;;
56171;SDS011;42052;41.634;-0.946;2024-03-29T03:27:31;0.20;;;0.20;;
56171;SDS011;42052;41.634;-0.946;2024-03-29T03:29:57;0.20;;;0.20;;
56171;SDS011;42052;41.634;-0.946;2024-03-29T03:32:23;0.28;;;0.28;;
56171;SDS011;42052;41.634;-0.946;2024-03-29T03:34:49;0.73;;;0.40;;
56171;SDS011;42052;41.634;-0.946;2024-03-29T03:37:14;0.20;;;0.20;;
56171;SDS011;42052;41.634;-0.946;2024-03-29T03:39:40;0.20;;;0.20;;
56171;SDS011;42052;41.634;-0.946;2024-03-29T03:42:06;0.32;;;0.20;;
56171;SDS011;42052;41.634;-0.946;2024-03-29T03:44:32;0.40;;;0.22;;
56171;SDS011;42052;41.634;-0.946;2024-03-29T03:46:58;0.20;;;0.20;;
56171;SDS011;42052;41.634;-0.946;2024-03-29T03:49:24;0.15;;;0.15;;
56171;SDS011;42052;41.634;-0.946;2024-03-29T03:51:49;0.22;;;0.20;;
56171;SDS011;42052;41.634;-0.946;2024-03-29T03:54:15;0.30;;;0.30;;
56171;SDS011;42052;41.634;-0.946;2024-03-29T03:56:41;0.25;;;0.20;;
56171;SDS011;42052;41.634;-0.946;2024-03-29T03:59:07;0.30;;;0.25;;
56171;SDS011;42052;41.634;-0.946;2024-03-29T04:01:34;0.63;;;0.30;;
56171;SDS011;42052;41.634;-0.946;2024-03-29T04:04:00;0.20;;;0.20;;
56171;SDS011;42052;41.634;-0.946;2024-03-29T04:06:26;0.20;;;0.20;;
56171;SDS011;42052;41.634;-0.946;2024-03-29T04:08:52;0.40;;;0.30;;
56171;SDS011;42052;41.634;-0.946;2024-03-29T04:11:18;0.40;;;0.30;;
56171;SDS011;42052;41.634;-0.946;2024-03-29T04:13:44;0.40;;;0.30;;
56171;SDS011;42052;41.634;-0.946;2024-03-29T04:16:11;0.20;;;0.20;;
56171;SDS011;42052;41.634;-0.946;2024-03-29T04:18:37;0.80;;;0.20;;
56171;SDS011;42052;41.634;-0.946;2024-03-29T04:21:03;0.30;;;0.22;;
56171;SDS011;42052;41.634;-0.946;2024-03-29T04:23:29;0.40;;;0.20;;
56171;SDS011;42052;41.634;-0.946;2024-03-29T04:25:56;0.20;;;0.20;;
56171;SDS011;42052;41.634;-0.946;2024-03-29T04:28:23;0.30;;;0.30;;
56171;SDS011;42052;41.634;-0.946;2024-03-29T04:30:53;0.20;;;0.17;;
56171;SDS011;42052;41.634;-0.946;2024-03-29T04:33:23;0.22;;;0.22;;
56171;SDS011;42052;41.634;-0.946;2024-03-29T04:35:59;0.20;;;0.20;;
56171;SDS011;42052;41.634;-0.946;2024-03-29T04:38:27;0.50;;;0.30;;
56171;SDS011;42052;41.634;-0.946;2024-03-29T04:40:54;0.20;;;0.20;;
56171;SDS011;42052;41.634;-0.946;2024-03-29T04:43:21;0.55;;;0.20;;
56171;SDS011;42052;41.634;-0.946;2024-03-29T04:45:48;0.35;;;0.30;;
56171;SDS011;42052;41.634;-0.946;2024-03-29T04:48:16;0.20;;;0.20;;
56171;SDS011;42052;41.634;-0.946;2024-03-29T04:50:42;0.30;;;0.20;;
56171;SDS011;42052;41.634;-0.946;2024-03-29T04:53:08;0.20;;;0.20;;
56171;SDS011;42052;41.634;-0.946;2024-03-29T04:55:34;0.20;;;0.20;;
56171;SDS011;42052;41.634;-0.946;2024-03-29T04:58:04;0.20;;;0.20;;
56171;SDS011;42052;41.634;-0.946;2024-03-29T05:00:30;0.20;;;0.20;;
56171;SDS011;42052;41.634;-0.946;2024-03-29T05:02:56;0.50;;;0.30;;
56171;SDS011;42052;41.634;-0.946;2024-03-29T05:05:21;0.20;;;0.20;;
56171;SDS011;42052;41.634;-0.946;2024-03-29T05:07:47;0.30;;;0.20;;
56171;SDS011;42052;41.634;-0.946;2024-03-29T05:10:13;0.22;;;0.20;;
56171;SDS011;42052;41.634;-0.946;2024-03-29T05:12:40;0.43;;;0.20;;
56171;SDS011;42052;41.634;-0.946;2024-03-29T05:15:06;0.20;;;0.20;;
56171;SDS011;42052;41.634;-0.946;2024-03-29T05:17:33;0.60;;;0.40;;
56171;SDS011;42052;41.634;-0.946;2024-03-29T05:19:59;0.40;;;0.20;;
56171;SDS011;42052;41.634;-0.946;2024-03-29T05:22:24;0.20;;;0.20;;
56171;SDS011;42052;41.634;-0.946;2024-03-29T05:24:53;0.20;;;0.20;;
56171;SDS011;42052;41.634;-0.946;2024-03-29T05:27:19;0.30;;;0.30;;
56171;SDS011;42052;41.634;-0.946;2024-03-29T05:29:45;0.25;;;0.20;;
56171;SDS011;42052;41.634;-0.946;2024-03-29T05:32:13;0.35;;;0.20;;
56171;SDS011;42052;41.634;-0.946;2024-03-29T05:34:38;0.43;;;0.25;;
56171;SDS011;42052;41.634;-0.946;2024-03-29T05:37:04;0.28;;;0.28;;
56171;SDS011;42052;41.634;-0.946;2024-03-29T05:39:30;0.35;;;0.20;;
56171;SDS011;42052;41.634;-0.946;2024-03-29T05:41:56;0.20;;;0.20;;
56171;SDS011;42052;41.634;-0.946;2024-03-29T05:44:23;0.85;;;0.30;;
56171;SDS011;42052;41.634;-0.946;2024-03-29T05:46:49;0.10;;;0.10;;
56171;SDS011;42052;41.634;-0.946;2024-03-29T05:49:15;0.38;;;0.20;;
56171;SDS011;42052;41.634;-0.946;2024-03-29T05:51:41;0.20;;;0.20;;
56171;SDS011;42052;41.634;-0.946;2024-03-29T05:54:07;0.22;;;0.20;;
56171;SDS011;42052;41.634;-0.946;2024-03-29T05:56:33;0.20;;;0.20;;
56171;SDS011;42052;41.634;-0.946;2024-03-29T05:58:59;0.90;;;0.32;;
56171;SDS011;42052;41.634;-0.946;2024-03-29T06:01:25;0.22;;;0.22;;
56171;SDS011;42052;41.634;-0.946;2024-03-29T06:03:51;0.22;;;0.20;;
56171;SDS011;42052;41.634;-0.946;2024-03-29T06:06:19;0.30;;;0.22;;
56171;SDS011;42052;41.634;-0.946;2024-03-29T06:08:49;0.50;;;0.30;;
56171;SDS011;42052;41.634;-0.946;2024-03-29T06:11:15;0.22;;;0.20;;
56171;SDS011;42052;41.634;-0.946;2024-03-29T06:13:41;0.20;;;0.20;;
56171;SDS011;42052;41.634;-0.946;2024-03-29T06:16:19;0.38;;;0.30;;
56171;SDS011;42052;41.634;-0.946;2024-03-29T06:19:08;0.73;;;0.20;;
56171;SDS011;42052;41.634;-0.946;2024-03-29T06:21:34;0.50;;;0.30;;
56171;SDS011;42052;41.634;-0.946;2024-03-29T06:24:07;0.20;;;0.20;;
56171;SDS011;42052;41.634;-0.946;2024-03-29T06:26:39;0.20;;;0.20;;
56171;SDS011;42052;41.634;-0.946;2024-03-29T06:29:05;0.28;;;0.25;;
56171;SDS011;42052;41.634;-0.946;2024-03-29T06:31:31;0.57;;;0.25;;
56171;SDS011;42052;41.634;-0.946;2024-03-29T06:33:57;0.30;;;0.30;;
56171;SDS011;42052;41.634;-0.946;2024-03-29T06:36:23;0.52;;;0.30;;
56171;SDS011;42052;41.634;-0.946;2024-03-29T06:38:50;0.70;;;0.20;;
56171;SDS011;42052;41.634;-0.946;2024-03-29T06:41:17;0.38;;;0.30;;
56171;SDS011;42052;41.634;-0.946;2024-03-29T06:43:43;0.25;;;0.25;;
56171;SDS011;42052;41.634;-0.946;2024-03-29T06:46:13;0.20;;;0.20;;
56171;SDS011;42052;41.634;-0.946;2024-03-29T06:48:40;0.30;;;0.30;;
56171;SDS011;42052;41.634;-0.946;2024-03-29T06:51:06;0.28;;;0.20;;
56171;SDS011;42052;41.634;-0.946;2024-03-29T06:53:32;0.50;;;0.20;;
56171;SDS011;42052;41.634;-0.946;2024-03-29T06:55:59;0.45;;;0.28;;
56171;SDS011;42052;41.634;-0.946;2024-03-29T06:58:27;0.22;;;0.20;;
56171;SDS011;42052;41.634;-0.946;2024-03-29T07:00:52;0.57;;;0.30;;
56171;SDS011;42052;41.634;-0.946;2024-03-29T07:03:19;0.20;;;0.20;;
56171;SDS011;42052;41.634;-0.946;2024-03-29T07:05:48;0.47;;;0.30;;
56171;SDS011;42052;41.634;-0.946;2024-03-29T07:08:15;0.32;;;0.20;;
56171;SDS011;42052;41.634;-0.946;2024-03-29T07:10:41;0.30;;;0.30;;
56171;SDS011;42052;41.634;-0.946;2024-03-29T07:13:07;0.80;;;0.30;;
56171;SDS011;42052;41.634;-0.946;2024-03-29T07:15:34;0.60;;;0.20;;
56171;SDS011;42052;41.634;-0.946;2024-03-29T07:18:01;0.50;;;0.20;;
56171;SDS011;42052;41.634;-0.946;2024-03-29T07:20:30;0.45;;;0.20;;
56171;SDS011;42052;41.634;-0.946;2024-03-29T07:22:56;0.43;;;0.20;;
56171;SDS011;42052;41.634;-0.946;2024-03-29T07:25:22;0.25;;;0.20;;
56171;SDS011;42052;41.634;-0.946;2024-03-29T07:27:47;0.28;;;0.20;;
56171;SDS011;42052;41.634;-0.946;2024-03-29T07:30:15;0.20;;;0.20;;
56171;SDS011;42052;41.634;-0.946;2024-03-29T07:32:41;0.32;;;0.30;;
56171;SDS011;42052;41.634;-0.946;2024-03-29T07:35:07;0.35;;;0.20;;
56171;SDS011;42052;41.634;-0.946;2024-03-29T07:37:33;0.70;;;0.20;;
56171;SDS011;42052;41.634;-0.946;2024-03-29T07:39:59;0.30;;;0.30;;
56171;SDS011;42052;41.634;-0.946;2024-03-29T07:42:24;0.13;;;0.13;;
56171;SDS011;42052;41.634;-0.946;2024-03-29T07:44:50;0.30;;;0.20;;
56171;SDS011;42052;41.634;-0.946;2024-03-29T07:47:16;0.20;;;0.20;;
56171;SDS011;42052;41.634;-0.946;2024-03-29T07:49:43;0.28;;;0.20;;
56171;SDS011;42052;41.634;-0.946;2024-03-29T07:52:09;0.25;;;0.20;;
56171;SDS011;42052;41.634;-0.946;2024-03-29T07:54:35;0.40;;;0.20;;
56171;SDS011;42052;41.634;-0.946;2024-03-29T07:57:00;0.20;;;0.20;;
56171;SDS011;42052;41.634;-0.946;2024-03-29T07:59:27;0.40;;;0.20;;
56171;SDS011;42052;41.634;-0.946;2024-03-29T08:01:53;0.20;;;0.20;;
56171;SDS011;42052;41.634;-0.946;2024-03-29T08:04:21;0.25;;;0.22;;
56171;SDS011;42052;41.634;-0.946;2024-03-29T08:06:46;0.20;;;0.20;;
56171;SDS011;42052;41.634;-0.946;2024-03-29T08:09:12;0.60;;;0.30;;
56171;SDS011;42052;41.634;-0.946;2024-03-29T08:11:41;0.40;;;0.20;;
56171;SDS011;42052;41.634;-0.946;2024-03-29T08:14:07;0.20;;;0.20;;
56171;SDS011;42052;41.634;-0.946;2024-03-29T08:16:33;0.20;;;0.20;;
56171;SDS011;42052;41.634;-0.946;2024-03-29T08:18:59;0.40;;;0.30;;
56171;SDS011;42052;41.634;-0.946;2024-03-29T08:21:25;0.35;;;0.20;;
56171;SDS011;42052;41.634;-0.946;2024-03-29T08:23:53;0.28;;;0.20;;
56171;SDS011;42052;41.634;-0.946;2024-03-29T08:26:24;0.10;;;0.10;;
56171;SDS011;42052;41.634;-0.946;2024-03-29T08:28:50;0.82;;;0.30;;
56171;SDS011;42052;41.634;-0.946;2024-03-29T08:31:17;0.20;;;0.20;;
56171;SDS011;42052;41.634;-0.946;2024-03-29T08:33:44;0.52;;;0.20;;
56171;SDS011;42052;41.634;-0.946;2024-03-29T08:36:10;0.17;;;0.17;;
56171;SDS011;42052;41.634;-0.946;2024-03-29T08:38:37;0.30;;;0.30;;
56171;SDS011;42052;41.634;-0.946;2024-03-29T08:41:07;0.30;;;0.20;;
56171;SDS011;42052;41.634;-0.946;2024-03-29T08:43:34;0.30;;;0.30;;
56171;SDS011;42052;41.634;-0.946;2024-03-29T08:46:00;0.30;;;0.30;;
56171;SDS011;42052;41.634;-0.946;2024-03-29T08:48:29;0.43;;;0.30;;
56171;SDS011;42052;41.634;-0.946;2024-03-29T08:50:55;0.22;;;0.20;;
56171;SDS011;42052;41.634;-0.946;2024-03-29T08:53:21;0.20;;;0.20;;
56171;SDS011;42052;41.634;-0.946;2024-03-29T08:55:47;0.20;;;0.20;;
56171;SDS011;42052;41.634;-0.946;2024-03-29T08:58:15;0.47;;;0.20;;
56171;SDS011;42052;41.634;-0.946;2024-03-29T09:00:42;0.32;;;0.20;;
56171;SDS011;42052;41.634;-0.946;2024-03-29T09:03:08;0.30;;;0.30;;
56171;SDS011;42052;41.634;-0.946;2024-03-29T09:05:34;0.55;;;0.30;;
56171;SDS011;42052;41.634;-0.946;2024-03-29T09:08:00;0.32;;;0.20;;
56171;SDS011;42052;41.634;-0.946;2024-03-29T09:10:26;0.30;;;0.30;;
56171;SDS011;42052;41.634;-0.946;2024-03-29T09:12:52;0.25;;;0.20;;
56171;SDS011;42052;41.634;-0.946;2024-03-29T09:15:18;0.50;;;0.30;;
56171;SDS011;42052;41.634;-0.946;2024-03-29T09:17:44;0.20;;;0.20;;
56171;SDS011;42052;41.634;-0.946;2024-03-29T09:20:11;0.65;;;0.30;;
56171;SDS011;42052;41.634;-0.946;2024-03-29T09:22:37;0.30;;;0.20;;
56171;SDS011;42052;41.634;-0.946;2024-03-29T09:25:04;0.20;;;0.20;;
56171;SDS011;42052;41.634;-0.946;2024-03-29T09:27:31;0.50;;;0.30;;
56171;SDS011;42052;41.634;-0.946;2024-03-29T09:29:59;0.20;;;0.20;;
56171;SDS011;42052;41.634;-0.946;2024-03-29T09:32:25;0.20;;;0.20;;
56171;SDS011;42052;41.634;-0.946;2024-03-29T09:34:51;0.28;;;0.20;;
56171;SDS011;42052;41.634;-0.946;2024-03-29T09:37:17;0.40;;;0.20;;
56171;SDS011;42052;41.634;-0.946;2024-03-29T09:39:45;0.30;;;0.30;;
56171;SDS011;42052;41.634;-0.946;2024-03-29T09:42:15;0.57;;;0.25;;
56171;SDS011;42052;41.634;-0.946;2024-03-29T09:44:43;0.20;;;0.20;;
56171;SDS011;42052;41.634;-0.946;2024-03-29T09:47:11;0.38;;;0.30;;
56171;SDS011;42052;41.634;-0.946;2024-03-29T09:49:42;0.57;;;0.30;;
56171;SDS011;42052;41.634;-0.946;2024-03-29T09:52:09;0.68;;;0.22;;
56171;SDS011;42052;41.634;-0.946;2024-03-29T09:54:37;0.35;;;0.20;;
56171;SDS011;42052;41.634;-0.946;2024-03-29T09:57:03;0.47;;;0.35;;
56171;SDS011;42052;41.634;-0.946;2024-03-29T09:59:30;0.82;;;0.30;;
56171;SDS011;42052;41.634;-0.946;2024-03-29T10:01:56;0.20;;;0.20;;
56171;SDS011;42052;41.634;-0.946;2024-03-29T10:04:25;0.35;;;0.22;;
56171;SDS011;42052;41.634;-0.946;2024-03-29T10:06:54;0.60;;;0.30;;
56171;SDS011;42052;41.634;-0.946;2024-03-29T10:09:21;0.43;;;0.30;;
56171;SDS011;42052;41.634;-0.946;2024-03-29T10:11:47;0.20;;;0.20;;
56171;SDS011;42052;41.634;-0.946;2024-03-29T10:14:17;0.52;;;0.30;;
56171;SDS011;42052;41.634;-0.946;2024-03-29T10:16:42;0.65;;;0.30;;
56171;SDS011;42052;41.634;-0.946;2024-03-29T10:19:08;0.30;;;0.30;;
56171;SDS011;42052;41.634;-0.946;2024-03-29T10:21:36;0.60;;;0.25;;
56171;SDS011;42052;41.634;-0.946;2024-03-29T10:24:16;0.38;;;0.30;;
56171;SDS011;42052;41.634;-0.946;2024-03-29T10:26:43;0.43;;;0.25;;
56171;SDS011;42052;41.634;-0.946;2024-03-29T10:29:09;0.20;;;0.20;;
56171;SDS011;42052;41.634;-0.946;2024-03-29T10:31:36;0.63;;;0.25;;
56171;SDS011;42052;41.634;-0.946;2024-03-29T10:34:02;0.55;;;0.20;;
56171;SDS011;42052;41.634;-0.946;2024-03-29T10:36:30;0.20;;;0.20;;
56171;SDS011;42052;41.634;-0.946;2024-03-29T10:39:08;0.30;;;0.22;;
56171;SDS011;42052;41.634;-0.946;2024-03-29T10:41:42;0.75;;;0.32;;
56171;SDS011;42052;41.634;-0.946;2024-03-29T10:44:09;0.82;;;0.30;;
56171;SDS011;42052;41.634;-0.946;2024-03-29T10:46:40;0.40;;;0.30;;
56171;SDS011;42052;41.634;-0.946;2024-03-29T10:49:07;0.38;;;0.30;;
56171;SDS011;42052;41.634;-0.946;2024-03-29T10:51:38;0.85;;;0.20;;
56171;SDS011;42052;41.634;-0.946;2024-03-29T10:54:09;0.45;;;0.30;;
56171;SDS011;42052;41.634;-0.946;2024-03-29T10:56:36;0.50;;;0.28;;
56171;SDS011;42052;41.634;-0.946;2024-03-29T10:59:07;0.40;;;0.20;;
56171;SDS011;42052;41.634;-0.946;2024-03-29T11:02:11;0.88;;;0.30;;
56171;SDS011;42052;41.634;-0.946;2024-03-29T11:04:39;0.38;;;0.30;;
56171;SDS011;42052;41.634;-0.946;2024-03-29T11:07:06;0.73;;;0.20;;
56171;SDS011;42052;41.634;-0.946;2024-03-29T11:09:43;0.50;;;0.20;;
56171;SDS011;42052;41.634;-0.946;2024-03-29T11:12:12;0.45;;;0.30;;
56171;SDS011;42052;41.634;-0.946;2024-03-29T11:14:43;0.30;;;0.30;;
56171;SDS011;42052;41.634;-0.946;2024-03-29T11:17:15;0.25;;;0.25;;
56171;SDS011;42052;41.634;-0.946;2024-03-29T11:19:41;0.77;;;0.30;;
56171;SDS011;42052;41.634;-0.946;2024-03-29T11:22:08;0.35;;;0.20;;
56171;SDS011;42052;41.634;-0.946;2024-03-29T11:24:35;0.40;;;0.30;;
56171;SDS011;42052;41.634;-0.946;2024-03-29T11:27:11;0.57;;;0.30;;
56171;SDS011;42052;41.634;-0.946;2024-03-29T11:29:41;0.22;;;0.22;;
56171;SDS011;42052;41.634;-0.946;2024-03-29T11:32:08;0.80;;;0.40;;
56171;SDS011;42052;41.634;-0.946;2024-03-29T11:34:35;0.38;;;0.22;;
56171;SDS011;42052;41.634;-0.946;2024-03-29T11:39:38;0.63;;;0.32;;
56171;SDS011;42052;41.634;-0.946;2024-03-29T11:42:05;0.82;;;0.30;;
56171;SDS011;42052;41.634;-0.946;2024-03-29T11:44:33;1.80;;;0.38;;
56171;SDS011;42052;41.634;-0.946;2024-03-29T11:46:59;0.52;;;0.30;;
56171;SDS011;42052;41.634;-0.946;2024-03-29T11:49:26;0.55;;;0.38;;
56171;SDS011;42052;41.634;-0.946;2024-03-29T11:52:01;0.30;;;0.30;;
56171;SDS011;42052;41.634;-0.946;2024-03-29T11:54:35;0.38;;;0.30;;
56171;SDS011;42052;41.634;-0.946;2024-03-29T11:57:03;0.50;;;0.30;;
56171;SDS011;42052;41.634;-0.946;2024-03-29T11:59:29;0.30;;;0.30;;
56171;SDS011;42052;41.634;-0.946;2024-03-29T12:01:55;0.63;;;0.30;;
56171;SDS011;42052;41.634;-0.946;2024-03-29T12:04:22;0.65;;;0.28;;
56171;SDS011;42052;41.634;-0.946;2024-03-29T12:06:49;2.50;;;0.45;;
56171;SDS011;42052;41.634;-0.946;2024-03-29T12:09:15;0.30;;;0.30;;
56171;SDS011;42052;41.634;-0.946;2024-03-29T12:11:43;0.50;;;0.30;;
56171;SDS011;42052;41.634;-0.946;2024-03-29T12:14:13;0.30;;;0.30;;
56171;SDS011;42052;41.634;-0.946;2024-03-29T12:16:44;0.45;;;0.40;;
56171;SDS011;42052;41.634;-0.946;2024-03-29T12:19:21;0.47;;;0.30;;
56171;SDS011;42052;41.634;-0.946;2024-03-29T12:21:51;0.50;;;0.30;;
56171;SDS011;42052;41.634;-0.946;2024-03-29T12:24:17;0.65;;;0.40;;
56171;SDS011;42052;41.634;-0.946;2024-03-29T12:26:43;1.30;;;0.40;;
56171;SDS011;42052;41.634;-0.946;2024-03-29T12:29:09;0.80;;;0.40;;
56171;SDS011;42052;41.634;-0.946;2024-03-29T12:31:35;0.55;;;0.30;;
56171;SDS011;42052;41.634;-0.946;2024-03-29T12:34:02;0.47;;;0.30;;
56171;SDS011;42052;41.634;-0.946;2024-03-29T12:36:29;0.60;;;0.30;;
56171;SDS011;42052;41.634;-0.946;2024-03-29T12:38:58;0.43;;;0.30;;
56171;SDS011;42052;41.634;-0.946;2024-03-29T12:41:30;0.50;;;0.40;;
56171;SDS011;42052;41.634;-0.946;2024-03-29T12:43:56;0.90;;;0.40;;
56171;SDS011;42052;41.634;-0.946;2024-03-29T12:46:23;0.75;;;0.40;;
56171;SDS011;42052;41.634;-0.946;2024-03-29T12:49:00;1.23;;;0.40;;
56171;SDS011;42052;41.634;-0.946;2024-03-29T12:51:27;0.70;;;0.40;;
56171;SDS011;42052;41.634;-0.946;2024-03-29T12:53:54;2.20;;;0.43;;
56171;SDS011;42052;41.634;-0.946;2024-03-29T12:56:22;1.10;;;0.50;;
56171;SDS011;42052;41.634;-0.946;2024-03-29T12:58:47;1.80;;;0.50;;
56171;SDS011;42052;41.634;-0.946;2024-03-29T13:01:13;0.80;;;0.35;;
56171;SDS011;42052;41.634;-0.946;2024-03-29T13:03:40;1.75;;;0.50;;
56171;SDS011;42052;41.634;-0.946;2024-03-29T13:06:09;1.17;;;0.50;;
56171;SDS011;42052;41.634;-0.946;2024-03-29T13:08:34;1.38;;;0.60;;
56171;SDS011;42052;41.634;-0.946;2024-03-29T13:11:01;1.20;;;0.40;;
56171;SDS011;42052;41.634;-0.946;2024-03-29T13:13:27;0.40;;;0.40;;
56171;SDS011;42052;41.634;-0.946;2024-03-29T13:15:53;1.35;;;0.60;;
56171;SDS011;42052;41.634;-0.946;2024-03-29T13:18:20;0.73;;;0.43;;
56171;SDS011;42052;41.634;-0.946;2024-03-29T13:20:46;0.43;;;0.40;;
56171;SDS011;42052;41.634;-0.946;2024-03-29T13:23:12;0.73;;;0.45;;
56171;SDS011;42052;41.634;-0.946;2024-03-29T13:25:41;0.60;;;0.50;;
56171;SDS011;42052;41.634;-0.946;2024-03-29T13:28:07;0.50;;;0.40;;
56171;SDS011;42052;41.634;-0.946;2024-03-29T13:30:35;0.77;;;0.50;;
56171;SDS011;42052;41.634;-0.946;2024-03-29T13:33:08;1.95;;;0.50;;
56171;SDS011;42052;41.634;-0.946;2024-03-29T13:35:35;1.80;;;0.70;;
56171;SDS011;42052;41.634;-0.946;2024-03-29T13:38:02;0.52;;;0.40;;
56171;SDS011;42052;41.634;-0.946;2024-03-29T13:40:29;1.02;;;0.52;;
56171;SDS011;42052;41.634;-0.946;2024-03-29T13:42:57;1.38;;;0.50;;
56171;SDS011;42052;41.634;-0.946;2024-03-29T13:45:23;0.88;;;0.57;;
56171;SDS011;42052;41.634;-0.946;2024-03-29T13:47:51;1.42;;;0.50;;
56171;SDS011;42052;41.634;-0.946;2024-03-29T13:50:17;1.17;;;0.60;;
56171;SDS011;42052;41.634;-0.946;2024-03-29T13:52:43;1.45;;;0.60;;
56171;SDS011;42052;41.634;-0.946;2024-03-29T13:55:09;0.77;;;0.40;;
56171;SDS011;42052;41.634;-0.946;2024-03-29T13:57:35;1.42;;;0.43;;
56171;SDS011;42052;41.634;-0.946;2024-03-29T14:00:02;0.85;;;0.55;;
56171;SDS011;42052;41.634;-0.946;2024-03-29T14:02:30;1.13;;;0.57;;
56171;SDS011;42052;41.634;-0.946;2024-03-29T14:04:56;1.15;;;0.60;;
56171;SDS011;42052;41.634;-0.946;2024-03-29T14:07:23;0.95;;;0.50;;
56171;SDS011;42052;41.634;-0.946;2024-03-29T14:09:50;0.93;;;0.70;;
56171;SDS011;42052;41.634;-0.946;2024-03-29T14:12:16;1.42;;;0.70;;
56171;SDS011;42052;41.634;-0.946;2024-03-29T14:14:46;1.15;;;0.60;;
56171;SDS011;42052;41.634;-0.946;2024-03-29T14:17:13;0.82;;;0.60;;
56171;SDS011;42052;41.634;-0.946;2024-03-29T14:19:41;0.90;;;0.57;;
56171;SDS011;42052;41.634;-0.946;2024-03-29T14:22:07;1.55;;;0.70;;
56171;SDS011;42052;41.634;-0.946;2024-03-29T14:24:33;0.98;;;0.70;;
56171;SDS011;42052;41.634;-0.946;2024-03-29T14:27:02;1.20;;;0.57;;
56171;SDS011;42052;41.634;-0.946;2024-03-29T14:29:32;0.77;;;0.52;;
56171;SDS011;42052;41.634;-0.946;2024-03-29T14:31:58;1.30;;;0.60;;
56171;SDS011;42052;41.634;-0.946;2024-03-29T14:34:25;1.50;;;0.70;;
56171;SDS011;42052;41.634;-0.946;2024-03-29T14:36:51;1.60;;;0.60;;